Time;durP1;ratioP1;P1;durP2;ratioP2;P2;SDS_P1;SDS_P2;PMS_P1;PMS_P2;Temp;Humidity;BMP_temperature;BMP_pressure;BME280_temperature;BME280_humidity;BME280_pressure;Samples;Min_cycle;Max_cycle;Signal;HPM_P1;HPM_P2
2023/10/10 00:02:30;;;;;;;7.10;2.35;;;22.00;99.90;;;;;;5076070;28;20232;-77
2023/10/10 00:05:08;;;;;;;7.70;2.70;;;22.00;99.90;;;;;;5075082;28;20246;-76
2023/10/10 00:07:42;;;;;;;13.45;3.38;;;21.90;99.90;;;;;;5076911;28;20199;-80
2023/10/10 00:10:13;;;;;;;8.15;2.40;;;21.70;99.90;;;;;;5077391;28;20928;-80
2023/10/10 00:12:44;;;;;;;8.25;2.38;;;21.40;99.90;;;;;;5072764;28;20198;-82
2023/10/10 00:15:22;;;;;;;6.97;2.58;;;21.20;99.90;;;;;;5079297;28;20256;-78
2023/10/10 00:17:59;;;;;;;7.80;2.58;;;21.10;99.90;;;;;;5080314;28;20244;-78
2023/10/10 00:20:39;;;;;;;10.52;2.92;;;21.20;99.90;;;;;;5081827;28;20201;-78
2023/10/10 00:23:16;;;;;;;6.32;2.50;;;21.40;99.90;;;;;;5071582;28;20188;-74
2023/10/10 00:25:46;;;;;;;6.05;2.30;;;21.50;99.90;;;;;;5072920;28;20295;-78
2023/10/10 00:28:21;;;;;;;6.35;2.88;;;21.60;99.90;;;;;;5077543;28;20714;-73
2023/10/10 00:30:52;;;;;;;9.18;2.80;;;21.90;99.90;;;;;;5077253;28;20208;-75
2023/10/10 00:33:23;;;;;;;11.50;2.53;;;22.40;99.90;;;;;;5077197;28;20283;-74
2023/10/10 00:35:54;;;;;;;6.38;2.20;;;22.40;99.90;;;;;;5069189;28;20251;-78
2023/10/10 00:38:29;;;;;;;6.22;2.40;;;22.10;99.90;;;;;;5066082;28;20304;-75
2023/10/10 00:41:05;;;;;;;6.32;2.30;;;21.80;99.90;;;;;;5075777;28;20207;-75
2023/10/10 00:43:36;;;;;;;7.40;2.50;;;21.60;99.90;;;;;;5081841;28;20188;-80
2023/10/10 00:46:07;;;;;;;7.10;2.40;;;21.30;99.90;;;;;;5081672;28;20197;-76
2023/10/10 00:48:38;;;;;;;7.05;2.45;;;21.10;99.90;;;;;;5082197;28;20195;-80
2023/10/10 00:51:12;;;;;;;7.35;2.42;;;21.10;99.90;;;;;;5083008;28;20248;-78
2023/10/10 00:53:54;;;;;;;10.43;2.70;;;21.00;99.90;;;;;;5082618;28;20193;-83
2023/10/10 00:56:29;;;;;;;7.30;2.35;;;21.50;99.90;;;;;;5081601;28;20208;-83
2023/10/10 00:59:00;;;;;;;9.20;2.40;;;21.80;99.90;;;;;;5083608;28;20200;-84
2023/10/10 01:01:35;;;;;;;4.85;2.55;;;21.70;99.90;;;;;;5079818;28;20536;-83
2023/10/10 01:04:07;;;;;;;4.32;2.30;;;21.60;99.90;;;;;;5086738;28;20743;-82
2023/10/10 01:06:39;;;;;;;6.28;2.67;;;21.60;99.90;;;;;;5082179;28;20264;-83
2023/10/10 01:09:28;;;;;;;5.45;2.22;;;21.80;99.90;;;;;;5073729;28;20620;-83
2023/10/10 01:11:59;;;;;;;4.78;2.20;;;22.00;99.90;;;;;;5074675;28;20214;-81
2023/10/10 01:14:30;;;;;;;7.43;2.08;;;22.00;99.90;;;;;;5072769;28;20193;-83
2023/10/10 01:17:01;;;;;;;6.18;2.17;;;22.00;99.90;;;;;;5081451;28;20204;-81
2023/10/10 01:19:33;;;;;;;8.52;2.20;;;22.10;99.90;;;;;;5082140;28;20196;-82
2023/10/10 01:22:22;;;;;;;5.45;2.03;;;22.60;99.90;;;;;;5081431;28;20295;-81
2023/10/10 01:24:54;;;;;;;14.50;2.42;;;22.90;99.90;;;;;;5067416;28;20201;-79
2023/10/10 01:27:26;;;;;;;11.02;2.20;;;23.10;99.90;;;;;;5071416;28;20197;-82
2023/10/10 01:30:17;;;;;;;6.88;2.10;;;23.20;99.90;;;;;;5074840;28;20701;-80
2023/10/10 01:32:50;;;;;;;4.72;1.88;;;22.90;99.90;;;;;;5077938;28;20217;-75
2023/10/10 01:35:23;;;;;;;5.82;2.10;;;22.60;99.90;;;;;;5077758;28;20207;-74
2023/10/10 01:37:56;;;;;;;7.15;1.83;;;22.20;99.90;;;;;;5072066;28;20290;-76
2023/10/10 01:40:28;;;;;;;7.97;2.20;;;21.90;99.90;;;;;;5076918;28;20197;-82
2023/10/10 01:43:00;;;;;;;6.55;1.85;;;21.70;99.90;;;;;;5079274;28;20243;-76
2023/10/10 01:45:30;;;;;;;10.50;2.00;;;22.00;99.90;;;;;;5079687;28;20224;-79
2023/10/10 01:48:08;;;;;;;6.40;1.83;;;22.10;99.90;;;;;;5079708;28;20185;-81
2023/10/10 01:50:39;;;;;;;6.10;1.83;;;22.10;99.90;;;;;;5080447;28;20193;-74
2023/10/10 01:53:12;;;;;;;6.00;1.80;;;22.00;99.90;;;;;;5079001;28;20645;-75
2023/10/10 01:55:47;;;;;;;5.93;1.88;;;22.30;99.90;;;;;;5079452;28;20243;-76
2023/10/10 01:58:20;;;;;;;4.32;1.70;;;22.70;99.90;;;;;;5080618;28;20208;-72
2023/10/10 02:00:51;;;;;;;6.05;1.98;;;23.10;99.90;;;;;;5080615;28;20189;-78
2023/10/10 02:03:22;;;;;;;6.60;1.80;;;23.00;99.90;;;;;;5080482;28;20252;-73
2023/10/10 02:05:56;;;;;;;9.10;1.98;;;22.90;99.90;;;;;;5081098;28;20197;-76
2023/10/10 02:08:31;;;;;;;5.53;1.70;;;22.60;99.90;;;;;;5079541;28;20237;-77
2023/10/10 02:11:06;;;;;;;5.47;1.88;;;22.20;99.90;;;;;;5078592;28;20199;-76
2023/10/10 02:13:39;;;;;;;6.88;1.90;;;21.80;99.90;;;;;;5079761;28;20271;-78
2023/10/10 02:16:11;;;;;;;7.25;1.75;;;21.60;99.90;;;;;;5068341;28;20211;-75
2023/10/10 02:18:44;;;;;;;3.90;1.52;;;21.70;99.90;;;;;;5079716;28;20189;-78
2023/10/10 02:21:17;;;;;;;6.28;1.67;;;22.00;99.90;;;;;;5078489;28;20721;-72
2023/10/10 02:23:53;;;;;;;6.28;1.90;;;22.40;99.90;;;;;;5080522;28;20192;-72
2023/10/10 02:26:35;;;;;;;7.25;2.05;;;22.60;99.90;;;;;;5091574;28;20798;-73
2023/10/10 02:29:21;;;;;;;7.78;1.80;;;22.50;99.90;;;;;;5076558;28;20235;-73
2023/10/10 02:32:06;;;;;;;4.72;1.75;;;22.20;99.90;;;;;;5066473;28;20684;-74
2023/10/10 02:34:38;;;;;;;5.70;1.70;;;22.10;99.90;;;;;;5066550;28;20203;-74
2023/10/10 02:37:14;;;;;;;6.97;1.63;;;22.00;99.90;;;;;;5069652;28;20236;-75
2023/10/10 02:39:56;;;;;;;4.63;1.65;;;21.70;99.90;;;;;;5073982;28;20721;-80
2023/10/10 02:42:27;;;;;;;6.43;1.70;;;21.50;99.90;;;;;;5073614;28;20201;-73
2023/10/10 02:44:59;;;;;;;10.45;2.08;;;21.40;99.90;;;;;;5070453;28;20200;-80
2023/10/10 02:47:33;;;;;;;4.50;1.70;;;21.30;99.90;;;;;;5072468;28;20226;-80
2023/10/10 02:50:12;;;;;;;6.35;1.77;;;21.30;99.90;;;;;;5071728;28;20202;-82
2023/10/10 02:52:45;;;;;;;7.03;2.05;;;21.50;99.90;;;;;;5071282;28;20212;-81
2023/10/10 02:55:22;;;;;;;5.03;1.67;;;21.80;99.90;;;;;;5071867;28;20226;-79
2023/10/10 02:57:54;;;;;;;5.50;1.80;;;22.00;99.90;;;;;;5072375;28;20207;-80
2023/10/10 03:00:34;;;;;;;5.30;1.55;;;22.20;99.90;;;;;;5072714;28;20584;-80
2023/10/10 03:03:04;;;;;;;5.25;1.88;;;22.40;99.90;;;;;;5073314;28;20712;-80
2023/10/10 03:05:43;;;;;;;4.93;1.70;;;22.40;99.90;;;;;;5071848;28;20649;-73
2023/10/10 03:08:15;;;;;;;6.15;1.67;;;22.60;99.90;;;;;;5072706;28;20224;-72
2023/10/10 03:10:59;;;;;;;5.40;2.10;;;22.60;99.90;;;;;;5072943;28;20223;-73
2023/10/10 03:13:42;;;;;;;4.50;1.60;;;22.70;99.90;;;;;;5073469;28;20199;-73
2023/10/10 03:16:41;;;;;;;7.60;1.58;;;22.80;99.90;;;;;;5073774;28;20208;-73
2023/10/10 03:19:27;;;;;;;3.67;1.30;;;22.70;99.90;;;;;;5073551;28;20193;-77
2023/10/10 03:25:06;;;;;;;4.97;1.55;;;22.60;99.90;;;;;;5057854;28;20201;-76
2023/10/10 03:27:55;;;;;;;3.35;1.58;;;22.60;99.90;;;;;;5069696;28;20196;-72
2023/10/10 03:30:34;;;;;;;6.30;1.75;;;22.60;99.90;;;;;;5073208;28;20196;-73
2023/10/10 03:33:09;;;;;;;5.95;1.60;;;22.60;99.90;;;;;;5071458;28;20216;-73
2023/10/10 05:25:13;;;;;;;5.10;1.33;;;20.90;99.90;;;;;;5073339;28;20196;-84
2023/10/10 05:27:44;;;;;;;3.45;1.48;;;20.90;99.90;;;;;;5075247;28;20212;-85
2023/10/10 05:30:23;;;;;;;3.90;1.40;;;20.80;99.90;;;;;;5074060;28;20238;-81
2023/10/10 05:33:02;;;;;;;3.45;1.67;;;20.70;99.90;;;;;;5073792;28;20257;-84
2023/10/10 05:35:34;;;;;;;4.50;1.50;;;20.60;99.90;;;;;;5074436;28;20258;-82
2023/10/10 05:38:07;;;;;;;6.40;1.67;;;20.60;99.90;;;;;;5073405;28;20233;-83
2023/10/10 05:40:40;;;;;;;5.13;1.52;;;20.50;99.90;;;;;;5075626;28;20193;-81
2023/10/10 05:43:15;;;;;;;4.50;1.77;;;20.40;99.90;;;;;;5073294;28;20192;-83
2023/10/10 05:45:49;;;;;;;5.57;1.45;;;20.40;99.90;;;;;;5072753;28;20204;-77
2023/10/10 05:48:21;;;;;;;6.85;1.48;;;20.30;99.90;;;;;;5054864;28;20189;-82
2023/10/10 05:50:53;;;;;;;4.40;1.48;;;20.30;99.90;;;;;;5071772;28;20193;-83
2023/10/10 05:53:24;;;;;;;6.45;1.60;;;20.30;99.90;;;;;;5073277;28;20217;-85
2023/10/10 05:56:12;;;;;;;3.53;1.40;;;20.20;99.90;;;;;;5083366;28;20275;-87
2023/10/10 05:58:47;;;;;;;4.47;1.65;;;20.00;99.90;;;;;;5091238;28;20288;-83
2023/10/10 06:01:18;;;;;;;4.32;1.63;;;20.00;99.90;;;;;;5075657;28;20192;-83
2023/10/10 06:03:51;;;;;;;4.38;1.60;;;19.90;99.90;;;;;;5075399;28;20283;-84
2023/10/10 06:06:21;;;;;;;6.45;1.70;;;19.90;99.90;;;;;;5074755;28;20192;-84
2023/10/10 06:09:00;;;;;;;4.68;1.60;;;19.80;99.90;;;;;;5073931;28;20189;-83
2023/10/10 06:11:34;;;;;;;5.57;1.90;;;19.90;99.90;;;;;;5076988;28;20234;-86
2023/10/10 06:14:06;;;;;;;6.68;1.60;;;19.90;99.90;;;;;;5095894;28;20192;-83
2023/10/10 06:16:37;;;;;;;6.00;1.80;;;20.00;99.90;;;;;;5083942;28;20680;-87
2023/10/10 06:19:13;;;;;;;3.92;1.60;;;20.00;99.90;;;;;;5072730;28;20201;-84
2023/10/10 06:21:45;;;;;;;3.35;1.33;;;20.00;99.90;;;;;;5086829;28;20730;-86
2023/10/10 06:24:16;;;;;;;3.38;1.50;;;20.00;99.90;;;;;;5072363;28;20199;-74
2023/10/10 06:26:49;;;;;;;3.95;1.60;;;19.90;99.90;;;;;;5077573;28;20185;-85
2023/10/10 06:29:21;;;;;;;4.18;1.92;;;19.90;99.90;;;;;;5074109;28;20193;-77
2023/10/10 06:31:52;;;;;;;3.95;1.63;;;19.90;99.90;;;;;;5073126;28;20302;-86
2023/10/10 06:34:23;;;;;;;7.15;1.85;;;19.80;99.90;;;;;;5073308;28;20215;-84
2023/10/10 06:36:54;;;;;;;4.53;1.63;;;19.80;99.90;;;;;;5064309;28;20320;-84
2023/10/10 06:39:32;;;;;;;3.58;1.70;;;19.80;99.90;;;;;;5069925;28;20189;-81
2023/10/10 06:42:05;;;;;;;6.63;1.63;;;19.70;99.90;;;;;;5054259;28;20666;-82
2023/10/10 06:44:39;;;;;;;7.90;1.98;;;19.70;99.90;;;;;;5073227;28;20245;-83
2023/10/10 06:47:13;;;;;;;6.65;1.90;;;19.60;99.90;;;;;;5074007;28;20542;-87
2023/10/10 06:49:53;;;;;;;4.43;1.70;;;19.50;99.90;;;;;;5078716;28;20205;-84
2023/10/10 06:52:27;;;;;;;5.60;2.30;;;19.50;99.90;;;;;;5073925;28;20221;-87
2023/10/10 06:54:58;;;;;;;2.72;1.70;;;19.40;99.90;;;;;;5073392;28;20192;-82
2023/10/10 06:57:41;;;;;;;6.88;2.05;;;19.40;99.90;;;;;;5074076;28;20637;-78
2023/10/10 07:00:20;;;;;;;4.32;1.65;;;19.40;99.90;;;;;;5054050;28;20560;-81
2023/10/10 07:02:54;;;;;;;3.95;1.70;;;19.50;99.90;;;;;;5061797;28;20197;-79
2023/10/10 07:05:29;;;;;;;3.40;1.77;;;19.50;99.90;;;;;;5073974;28;20284;-79
2023/10/10 07:08:00;;;;;;;4.43;1.52;;;19.40;99.90;;;;;;5074039;28;20629;-77
2023/10/10 07:10:37;;;;;;;7.15;2.10;;;19.30;99.90;;;;;;5063399;28;20285;-80
2023/10/10 07:13:14;;;;;;;6.38;2.08;;;19.20;99.90;;;;;;5051938;28;20229;-78
2023/10/10 07:15:53;;;;;;;4.65;1.90;;;19.20;99.90;;;;;;5064024;28;20220;-80
2023/10/10 07:18:26;;;;;;;5.00;1.88;;;19.10;99.90;;;;;;5072041;28;20188;-80
2023/10/10 07:21:08;;;;;;;2.80;1.70;;;19.00;99.90;;;;;;5072222;28;20185;-81
2023/10/10 07:23:53;;;;;;;5.15;1.85;;;19.00;99.90;;;;;;5072010;28;20213;-77
2023/10/10 07:26:28;;;;;;;4.78;1.80;;;19.00;99.90;;;;;;5069147;28;20196;-80
2023/10/10 07:29:26;;;;;;;4.65;1.80;;;19.00;99.90;;;;;;5064212;28;20276;-80
2023/10/10 07:31:53;;;;;;;5.32;1.75;;;19.00;99.90;;;;;;5064921;28;20201;-81
2023/10/10 07:34:34;;;;;;;5.40;2.00;;;19.00;99.90;;;;;;5070517;28;20280;-82
2023/10/10 07:37:08;;;;;;;6.95;2.00;;;19.00;99.90;;;;;;5070982;28;20232;-80
2023/10/10 07:39:55;;;;;;;4.80;1.60;;;19.00;99.90;;;;;;5070234;28;20224;-82
2023/10/10 07:42:29;;;;;;;4.82;1.80;;;18.90;99.90;;;;;;5064060;28;20215;-80
2023/10/10 07:45:13;;;;;;;4.32;1.70;;;18.90;99.90;;;;;;5072735;28;20204;-80
2023/10/10 07:50:27;;;;;;;6.45;1.88;;;18.70;99.90;;;;;;5075947;28;20280;-83
2023/10/10 07:52:58;;;;;;;4.13;1.70;;;18.70;99.90;;;;;;5074622;28;20217;-79
2023/10/10 07:55:33;;;;;;;4.93;1.73;;;18.70;99.90;;;;;;5072583;28;20189;-82
2023/10/10 07:58:06;;;;;;;5.22;2.00;;;18.60;99.90;;;;;;5070719;28;20196;-79
2023/10/10 08:00:39;;;;;;;8.07;2.17;;;18.60;99.90;;;;;;5070914;28;20193;-80
2023/10/10 08:03:19;;;;;;;4.30;2.05;;;18.60;99.90;;;;;;5071251;28;20253;-80
2023/10/10 08:05:50;;;;;;;6.20;1.98;;;18.60;99.90;;;;;;5069758;28;20192;-79
2023/10/10 08:08:25;;;;;;;6.75;2.10;;;18.50;99.90;;;;;;5071551;28;20232;-78
2023/10/10 08:10:56;;;;;;;5.40;2.08;;;18.50;99.90;;;;;;5069294;28;20223;-79
2023/10/10 08:13:28;;;;;;;8.82;2.08;;;18.40;99.90;;;;;;5069969;28;20227;-73
2023/10/10 08:16:03;;;;;;;7.65;2.10;;;18.50;99.90;;;;;;5070310;28;20283;-75
2023/10/10 08:18:52;;;;;;;5.97;2.40;;;18.40;99.90;;;;;;5070504;28;20227;-74
2023/10/10 08:21:26;;;;;;;5.75;2.00;;;18.40;99.90;;;;;;5072049;28;20246;-74
2023/10/10 08:23:59;;;;;;;6.18;2.28;;;18.40;99.90;;;;;;5068855;28;20197;-74
2023/10/10 08:26:38;;;;;;;4.90;1.90;;;18.30;99.90;;;;;;5072560;28;20563;-75
2023/10/10 08:29:10;;;;;;;5.75;2.10;;;18.30;99.90;;;;;;5072655;28;20188;-78
2023/10/10 08:31:44;;;;;;;8.07;2.40;;;18.30;99.90;;;;;;5069899;28;20671;-77
2023/10/10 08:34:15;;;;;;;6.00;2.45;;;18.20;99.90;;;;;;5074034;28;20274;-75
2023/10/10 08:36:45;;;;;;;7.75;2.47;;;18.20;99.90;;;;;;5072860;28;20232;-79
2023/10/10 08:39:26;;;;;;;4.53;2.38;;;18.10;99.90;;;;;;5065375;28;20199;-78
2023/10/10 08:41:57;;;;;;;6.60;2.30;;;18.10;99.90;;;;;;5069992;28;20193;-79
2023/10/10 08:44:30;;;;;;;4.97;2.50;;;18.10;99.90;;;;;;5063758;28;20262;-79
2023/10/10 08:47:03;;;;;;;6.78;2.50;;;18.10;99.90;;;;;;5065079;28;20197;-81
2023/10/10 08:49:34;;;;;;;8.32;2.28;;;18.10;99.90;;;;;;5071051;28;20201;-81
2023/10/10 08:52:06;;;;;;;6.30;2.53;;;18.10;99.90;;;;;;5066066;28;20684;-80
2023/10/10 08:54:38;;;;;;;6.85;2.67;;;18.20;99.90;;;;;;5071857;28;20213;-77
2023/10/10 08:57:10;;;;;;;7.22;2.55;;;18.20;99.90;;;;;;5066456;28;20207;-80
2023/10/10 08:59:42;;;;;;;8.55;2.70;;;18.20;99.90;;;;;;5073560;28;20196;-81
2023/10/10 09:02:19;;;;;;;8.63;2.75;;;18.20;99.90;;;;;;5073002;28;20223;-77
2023/10/10 09:04:50;;;;;;;8.45;2.42;;;18.30;99.90;;;;;;5076131;28;20553;-80
2023/10/10 09:07:28;;;;;;;7.15;3.00;;;18.20;99.90;;;;;;5075670;28;20201;-80
2023/10/10 09:10:06;;;;;;;5.43;2.45;;;18.20;99.90;;;;;;5069615;28;20196;-80
2023/10/10 09:12:52;;;;;;;8.23;2.80;;;18.30;99.90;;;;;;5074363;28;20231;-80
2023/10/10 09:15:23;;;;;;;8.77;2.80;;;18.20;99.90;;;;;;5074703;28;20279;-80
2023/10/10 09:18:13;;;;;;;6.20;3.05;;;18.20;99.90;;;;;;5074527;28;20189;-80
2023/10/10 09:20:45;;;;;;;8.07;2.50;;;18.20;99.90;;;;;;5055863;28;20201;-80
2023/10/10 09:23:25;;;;;;;7.38;3.13;;;18.20;99.90;;;;;;5067665;28;20204;-80
2023/10/10 09:26:18;;;;;;;7.80;2.58;;;18.20;99.90;;;;;;5055723;28;20230;-79
2023/10/10 09:28:55;;;;;;;9.48;2.85;;;18.20;99.90;;;;;;5072949;28;20236;-79
2023/10/10 09:31:31;;;;;;;8.75;2.70;;;18.20;99.90;;;;;;5074698;28;20193;-80
2023/10/10 09:34:06;;;;;;;6.13;2.67;;;18.20;99.90;;;;;;5073526;28;20307;-80
2023/10/10 09:36:50;;;;;;;5.22;2.70;;;18.20;99.90;;;;;;5068729;28;20640;-80
2023/10/10 09:39:36;;;;;;;7.13;2.70;;;18.20;99.90;;;;;;5066780;28;20667;-79
2023/10/10 09:42:22;;;;;;;7.57;2.80;;;18.20;99.90;;;;;;5057167;28;20602;-78
2023/10/10 09:45:18;;;;;;;7.15;3.00;;;18.20;99.90;;;;;;5061918;28;20200;-77
2023/10/10 09:47:56;;;;;;;8.95;2.95;;;18.20;99.90;;;;;;5074837;28;20226;-78
2023/10/10 09:50:35;;;;;;;5.35;2.35;;;18.20;99.90;;;;;;5075585;28;20189;-77
2023/10/10 09:53:19;;;;;;;6.05;2.80;;;18.10;99.90;;;;;;5073937;28;20220;-79
2023/10/10 09:56:00;;;;;;;6.25;2.70;;;18.10;99.90;;;;;;5072568;28;20188;-80
2023/10/10 09:58:41;;;;;;;5.28;2.50;;;18.10;99.90;;;;;;5070692;28;20250;-79
2023/10/10 10:01:22;;;;;;;6.93;2.90;;;18.10;99.90;;;;;;5072031;28;20201;-79
2023/10/10 10:03:59;;;;;;;6.30;2.60;;;18.00;99.90;;;;;;5074297;28;20246;-75
2023/10/10 10:06:53;;;;;;;8.60;2.90;;;18.00;99.90;;;;;;5070015;28;20204;-75
2023/10/10 10:10:09;;;;;;;5.38;2.78;;;18.00;99.90;;;;;;5075373;28;20203;-78
2023/10/10 10:13:13;;;;;;;6.82;3.00;;;18.00;99.90;;;;;;5073691;28;20201;-79
2023/10/10 10:15:59;;;;;;;7.43;3.03;;;18.00;99.90;;;;;;5057572;28;20660;-77
2023/10/10 10:18:44;;;;;;;8.38;3.13;;;18.00;99.90;;;;;;5071057;28;20657;-75
2023/10/10 10:21:29;;;;;;;6.63;3.20;;;17.90;99.90;;;;;;5071633;28;20200;-79
2023/10/10 10:26:45;;;;;;;6.85;3.20;;;17.90;99.90;;;;;;5070274;28;20645;-79
2023/10/10 10:29:28;;;;;;;7.13;2.92;;;17.90;99.90;;;;;;5075082;28;20207;-79
2023/10/10 10:32:05;;;;;;;10.30;2.85;;;17.90;99.90;;;;;;5072732;28;20189;-74
2023/10/10 10:34:37;;;;;;;7.32;3.05;;;17.90;99.90;;;;;;5073946;28;20220;-78
2023/10/10 10:37:13;;;;;;;6.35;2.60;;;17.90;99.90;;;;;;5071626;28;20232;-79
2023/10/10 10:40:23;;;;;;;6.75;2.80;;;17.90;99.90;;;;;;5070826;28;20246;-79
2023/10/10 10:42:48;;;;;;;6.03;2.60;;;17.90;99.90;;;;;;5071139;28;20288;-79
2023/10/10 10:45:36;;;;;;;6.50;3.40;;;17.90;99.90;;;;;;5072857;28;20189;-79
2023/10/10 10:48:28;;;;;;;5.05;2.88;;;17.90;99.90;;;;;;5074084;28;20635;-79
2023/10/10 10:51:06;;;;;;;7.20;2.72;;;17.90;99.90;;;;;;5074322;28;20211;-79
2023/10/10 10:53:50;;;;;;;5.80;2.85;;;17.90;99.90;;;;;;5072953;28;20213;-78
2023/10/10 10:56:41;;;;;;;6.13;2.88;;;17.90;99.90;;;;;;5072982;28;20592;-79
2023/10/10 10:59:19;;;;;;;4.07;2.42;;;18.00;99.90;;;;;;5072294;28;20189;-79
2023/10/10 11:01:54;;;;;;;6.40;2.75;;;18.00;99.90;;;;;;5054040;28;20251;-79
2023/10/10 11:07:16;;;;;;;5.90;2.75;;;18.00;99.90;;;;;;5071873;28;20704;-78
2023/10/10 11:10:06;;;;;;;8.32;2.72;;;18.00;99.90;;;;;;5069957;28;20236;-80
2023/10/10 11:12:41;;;;;;;4.90;2.45;;;18.00;99.90;;;;;;5072189;28;20250;-78
2023/10/10 11:15:14;;;;;;;5.40;2.70;;;18.00;99.90;;;;;;5072865;28;20243;-78
2023/10/10 11:18:07;;;;;;;9.40;2.97;;;18.00;99.90;;;;;;5072811;28;20193;-79
2023/10/10 11:21:06;;;;;;;7.13;2.78;;;18.00;99.90;;;;;;5065291;28;20223;-79
2023/10/10 11:23:43;;;;;;;6.00;2.75;;;18.00;99.90;;;;;;5072835;28;20207;-78
2023/10/10 11:26:17;;;;;;;5.88;2.60;;;18.00;99.90;;;;;;5073192;28;20236;-78
2023/10/10 11:28:49;;;;;;;5.20;2.67;;;18.00;99.90;;;;;;5073582;28;20197;-79
2023/10/10 11:31:25;;;;;;;4.75;2.60;;;18.00;99.90;;;;;;5073503;28;20189;-79
2023/10/10 11:34:10;;;;;;;8.95;3.03;;;18.00;99.90;;;;;;5073432;28;20215;-78
2023/10/10 11:36:41;;;;;;;5.88;2.90;;;18.00;99.90;;;;;;5078862;28;20776;-79
2023/10/10 11:39:33;;;;;;;7.28;2.85;;;18.10;99.90;;;;;;5069252;28;20200;-79
2023/10/10 11:42:08;;;;;;;4.45;2.40;;;18.10;99.90;;;;;;5071259;28;20275;-78
2023/10/10 11:44:42;;;;;;;5.80;2.60;;;18.10;99.90;;;;;;5063279;28;20192;-78
2023/10/10 11:47:24;;;;;;;6.72;2.85;;;18.10;99.90;;;;;;5069588;28;20243;-79
2023/10/10 11:50:05;;;;;;;5.63;2.35;;;18.10;99.90;;;;;;5070393;28;20583;-79
2023/10/10 11:52:36;;;;;;;8.95;3.03;;;18.10;99.90;;;;;;5072010;28;20201;-79
2023/10/10 11:55:08;;;;;;;6.68;2.65;;;18.10;99.90;;;;;;5070349;28;20234;-79
2023/10/10 11:57:39;;;;;;;6.05;2.67;;;18.10;99.90;;;;;;5071265;28;20203;-80
2023/10/10 12:00:13;;;;;;;6.53;2.85;;;18.10;99.90;;;;;;5069331;28;20225;-79
2023/10/10 12:02:44;;;;;;;9.90;3.00;;;18.10;99.90;;;;;;5070547;28;20262;-79
2023/10/10 12:08:05;;;;;;;4.47;2.72;;;18.10;99.90;;;;;;5071462;28;20775;-79
2023/10/10 12:10:52;;;;;;;4.43;2.38;;;18.10;99.90;;;;;;5071000;28;20203;-78
2023/10/10 12:13:33;;;;;;;5.47;2.50;;;18.10;99.90;;;;;;5071866;28;20236;-78
2023/10/10 12:16:10;;;;;;;8.95;3.10;;;18.10;99.90;;;;;;5061732;28;20235;-78
2023/10/10 12:18:49;;;;;;;5.70;2.80;;;18.00;99.90;;;;;;5069766;28;20321;-79
2023/10/10 12:21:21;;;;;;;6.57;2.60;;;18.00;99.90;;;;;;5065951;28;20228;-79
2023/10/10 12:23:52;;;;;;;3.90;2.47;;;18.00;99.90;;;;;;5070902;28;20200;-78
2023/10/10 12:26:23;;;;;;;5.18;2.63;;;18.00;99.90;;;;;;5071427;28;20221;-79
2023/10/10 12:28:54;;;;;;;5.40;2.50;;;18.00;99.90;;;;;;5071075;28;20538;-79
2023/10/10 12:31:27;;;;;;;8.07;2.75;;;18.00;99.90;;;;;;5071905;28;20193;-80
2023/10/10 12:33:58;;;;;;;5.43;2.55;;;18.00;99.90;;;;;;5070845;28;20703;-78
2023/10/10 12:36:32;;;;;;;8.10;2.60;;;18.00;99.90;;;;;;5071575;28;20229;-79
2023/10/10 12:39:04;;;;;;;5.70;2.60;;;18.00;99.90;;;;;;5072585;28;20659;-79
2023/10/10 12:41:45;;;;;;;6.75;2.42;;;18.00;99.90;;;;;;5072776;28;20267;-79
2023/10/10 12:44:16;;;;;;;4.35;2.60;;;18.00;99.90;;;;;;5072489;28;20217;-80
2023/10/10 12:46:49;;;;;;;4.85;2.33;;;18.10;99.90;;;;;;5071339;28;20197;-80
2023/10/10 12:49:27;;;;;;;4.82;2.38;;;18.10;99.90;;;;;;5070053;28;20315;-79
2023/10/10 12:52:02;;;;;;;4.00;2.33;;;18.10;99.90;;;;;;5070150;28;20230;-79
2023/10/10 12:54:36;;;;;;;6.47;2.58;;;18.10;99.90;;;;;;5070087;28;20708;-79
2023/10/10 12:57:14;;;;;;;5.53;2.60;;;18.10;99.90;;;;;;5069566;28;20285;-79
2023/10/10 12:59:46;;;;;;;6.93;2.80;;;18.10;99.90;;;;;;5064006;28;20201;-79
2023/10/10 13:02:26;;;;;;;6.05;2.80;;;18.10;99.90;;;;;;5070683;28;20238;-79
2023/10/10 13:04:56;;;;;;;4.55;2.25;;;18.10;99.90;;;;;;5070573;28;20201;-79
2023/10/10 13:07:34;;;;;;;6.72;2.63;;;18.10;99.90;;;;;;5071511;28;20687;-79
2023/10/10 13:10:10;;;;;;;10.65;3.15;;;18.10;99.90;;;;;;5069672;28;20559;-80
2023/10/10 13:12:45;;;;;;;8.82;2.38;;;18.10;99.90;;;;;;5069945;28;20664;-79
2023/10/10 13:15:27;;;;;;;5.25;2.63;;;18.10;99.90;;;;;;5068924;28;20212;-79
2023/10/10 13:20:43;;;;;;;6.40;2.50;;;18.10;99.90;;;;;;5073598;28;20200;-78
2023/10/10 13:23:14;;;;;;;4.60;2.20;;;18.10;99.90;;;;;;5074093;28;20188;-80
2023/10/10 13:25:48;;;;;;;9.65;2.72;;;18.10;99.90;;;;;;5059610;28;20221;-78
2023/10/10 13:28:20;;;;;;;8.95;2.65;;;18.10;99.90;;;;;;5068393;28;20254;-79
2023/10/10 13:30:51;;;;;;;6.82;2.80;;;18.10;99.90;;;;;;5073055;28;20200;-79
2023/10/10 13:33:24;;;;;;;7.13;2.85;;;18.10;99.90;;;;;;5073898;28;20204;-79
2023/10/10 13:35:55;;;;;;;5.53;2.55;;;18.10;99.90;;;;;;5073510;28;20221;-79
2023/10/10 13:38:25;;;;;;;6.63;2.63;;;18.10;99.90;;;;;;5069554;28;20246;-79
2023/10/10 13:40:57;;;;;;;7.07;2.72;;;18.10;99.90;;;;;;5072823;28;20203;-80
2023/10/10 13:43:32;;;;;;;6.70;2.40;;;18.10;99.90;;;;;;5072599;28;20192;-78
2023/10/10 13:46:05;;;;;;;4.25;2.28;;;18.10;99.90;;;;;;5072156;28;20193;-79
2023/10/10 13:48:38;;;;;;;3.92;2.67;;;18.10;99.90;;;;;;5073151;28;20284;-79
2023/10/10 13:51:09;;;;;;;4.72;2.20;;;18.10;99.90;;;;;;5071738;28;20200;-79
2023/10/10 13:53:40;;;;;;;3.35;2.28;;;18.10;99.90;;;;;;5074362;28;20232;-79
2023/10/10 13:56:13;;;;;;;5.75;2.50;;;18.10;99.90;;;;;;5071164;28;20226;-79
2023/10/10 13:58:46;;;;;;;5.70;2.40;;;18.10;99.90;;;;;;5071125;28;20201;-79
2023/10/10 14:01:18;;;;;;;3.60;2.08;;;18.10;99.90;;;;;;5074122;28;20210;-79
2023/10/10 14:03:57;;;;;;;5.47;2.30;;;18.10;99.90;;;;;;5071573;28;20223;-79
2023/10/10 14:06:34;;;;;;;4.50;2.33;;;18.10;99.90;;;;;;5069470;28;20207;-79
2023/10/10 14:09:05;;;;;;;5.15;2.55;;;18.10;99.90;;;;;;5074027;28;20275;-80
2023/10/10 14:11:36;;;;;;;5.13;2.40;;;18.10;99.90;;;;;;5073222;28;20203;-80
2023/10/10 14:14:07;;;;;;;5.78;2.30;;;18.10;99.90;;;;;;5071837;28;20653;-79
2023/10/10 14:16:38;;;;;;;5.93;2.38;;;18.10;99.90;;;;;;5072282;28;20204;-80
2023/10/10 14:19:11;;;;;;;6.80;2.67;;;18.20;99.90;;;;;;5072551;28;20279;-79
2023/10/10 14:21:41;;;;;;;5.82;2.58;;;18.10;99.90;;;;;;5073134;28;20258;-77
2023/10/10 14:24:13;;;;;;;7.22;2.38;;;18.10;99.90;;;;;;5061741;28;20197;-79
2023/10/10 14:26:44;;;;;;;5.53;2.40;;;18.10;99.90;;;;;;5073839;28;20216;-80
2023/10/10 14:29:15;;;;;;;4.50;2.25;;;18.10;99.90;;;;;;5070954;28;20207;-78
2023/10/10 14:31:47;;;;;;;6.40;2.40;;;18.10;99.90;;;;;;5073008;28;20235;-79
2023/10/10 14:34:24;;;;;;;4.85;2.33;;;18.10;99.90;;;;;;5071814;28;20197;-79
2023/10/10 14:36:55;;;;;;;7.10;2.45;;;18.10;99.90;;;;;;5071598;28;20228;-79
2023/10/10 14:39:35;;;;;;;4.95;2.30;;;18.10;99.90;;;;;;5073295;28;20203;-80
2023/10/10 14:42:08;;;;;;;6.43;2.42;;;18.10;99.90;;;;;;5074256;28;20192;-78
2023/10/10 14:44:42;;;;;;;10.00;2.47;;;18.10;99.90;;;;;;5074323;28;20189;-78
2023/10/10 14:47:20;;;;;;;5.43;2.15;;;18.20;99.90;;;;;;5073766;28;20201;-79
2023/10/10 14:49:57;;;;;;;6.57;2.67;;;18.20;99.90;;;;;;5073857;28;20193;-79
2023/10/10 14:52:35;;;;;;;6.63;2.40;;;18.10;99.90;;;;;;5074097;28;20707;-79
2023/10/10 14:55:18;;;;;;;5.82;2.15;;;18.20;99.90;;;;;;5074101;28;20281;-79
2023/10/10 14:57:48;;;;;;;5.65;2.28;;;18.10;99.90;;;;;;5073890;28;20185;-79
2023/10/10 15:00:21;;;;;;;4.78;2.60;;;18.20;99.90;;;;;;5074063;28;20192;-79
2023/10/10 15:02:53;;;;;;;4.28;2.33;;;18.20;99.90;;;;;;5073418;28;20266;-78
2023/10/10 15:05:27;;;;;;;4.90;2.17;;;18.20;99.90;;;;;;5073448;28;20227;-79
2023/10/10 15:07:58;;;;;;;5.50;2.22;;;18.10;99.90;;;;;;5073105;28;20189;-79
2023/10/10 15:10:28;;;;;;;7.07;2.30;;;18.10;99.90;;;;;;5071633;28;20197;-79
2023/10/10 15:12:59;;;;;;;7.90;2.47;;;18.10;99.90;;;;;;5071502;28;20201;-79
2023/10/10 15:15:31;;;;;;;4.97;2.40;;;18.10;99.90;;;;;;5070214;28;20235;-79
2023/10/10 15:18:01;;;;;;;5.65;2.20;;;18.10;99.90;;;;;;5071220;28;20201;-78
2023/10/10 15:20:34;;;;;;;4.40;2.30;;;18.10;99.90;;;;;;5071390;28;20193;-80
2023/10/10 15:23:05;;;;;;;7.68;2.70;;;18.10;99.90;;;;;;5069839;28;20193;-76
2023/10/10 15:25:35;;;;;;;5.30;2.20;;;18.10;99.90;;;;;;5071717;28;20584;-80
2023/10/10 15:28:07;;;;;;;6.00;2.40;;;18.10;99.90;;;;;;5071416;28;20196;-79
2023/10/10 15:30:41;;;;;;;8.02;2.50;;;18.10;99.90;;;;;;5071852;28;20227;-80
2023/10/10 15:33:17;;;;;;;7.55;2.92;;;18.10;99.90;;;;;;5068031;28;20288;-80
2023/10/10 15:35:52;;;;;;;4.28;2.20;;;18.00;99.90;;;;;;5070724;28;20277;-80
2023/10/10 15:38:23;;;;;;;3.08;2.20;;;18.00;99.90;;;;;;5071324;28;20591;-80